PWSweather.com
Personal Weather Stations
Station Observations

CefaluIT

Lat: 38.0324, Lon: 14.02837

Elevation: 92

Station Type: LACROSSE WS 2350

http://www.meteocefalu.altervista.org

Latest ConditionsUpdated 12:40:08 PM GMT+01:01 Wednesday, Jul 17, 2019
Currently Today's Max Today's Min Today's Average
Temperature 79.7°F26.5°C 80.2°F26.8°C 71.4°F21.9°C 76.5°F24.7°C
Dew Point 68.2°F20.1°C 68.2°F20.1°C 61.1°F16.2°C 64.9°F18.3°C
Winds 4.5 mph SW7.2 kmh SW 9.7 mph -15.6 kmh - - 2.8 mph 4.5 kmh
Wind Gusts 12.7 mph20.4 kmh 12.7 mph20.4 kmh - -
Humidity 68% 75% 62% 67%
Pressure 29.82 in1009.8 mb 29.83 in1010.2 mb 29.78 in1008.5 mb -
Precipitation - 0.02 in0.5 mm - -
Hour Temp Dew Point Humidity Winds Wind Gusts Pressure Precip Precip Rate Daily Precip Total
12:40 PM 79.7°F26.5°C 68.2°F20.1°C 68% 4.5 mph SW7.2 kmh SW 12.7 mph20.4 kmh 29.82 in1009.8 mb - 0.00 in0.0 mm 0.02 in0.5 mm
12:30 PM 79.7°F26.5°C 68.2°F20.1°C 68% 9.7 mph WSW15.6 kmh WSW 5.1 mph8.2 kmh 29.82 in1009.8 mb - 0.00 in0.0 mm 0.02 in0.5 mm
12:20 PM 79.3°F26.3°C 67.9°F19.9°C 68% 4.2 mph WSW6.8 kmh WSW 4.2 mph6.8 kmh 29.82 in1009.8 mb - 0.00 in0.0 mm 0.02 in0.5 mm
12:10 PM 79.8°F26.6°C 67.4°F19.7°C 66% 2.9 mph W4.7 kmh W 3.8 mph6.1 kmh 29.82 in1009.8 mb - 0.00 in0.0 mm 0.02 in0.5 mm
12:00 PM 79.7°F26.5°C 67.3°F19.6°C 66% 7.9 mph WSW12.7 kmh WSW 5.1 mph8.2 kmh 29.82 in1009.8 mb - 0.00 in0.0 mm 0.02 in0.5 mm
11:50 AM 79.2°F26.2°C 66.4°F19.1°C 65% 7.4 mph WSW11.9 kmh WSW 7.4 mph11.9 kmh 29.82 in1009.8 mb - 0.00 in0.0 mm 0.02 in0.5 mm
11:40 AM 79.8°F26.6°C 66.6°F19.2°C 64% 2.9 mph W4.7 kmh W 7.4 mph11.9 kmh 29.83 in1010.2 mb - 0.00 in0.0 mm 0.02 in0.5 mm
11:30 AM 79.9°F26.6°C 66.2°F19.0°C 63% 4.3 mph WSW6.9 kmh WSW 4.9 mph7.9 kmh 29.83 in1010.2 mb - 0.00 in0.0 mm 0.02 in0.5 mm
11:20 AM 80.2°F26.8°C 66.0°F18.9°C 62% 3.8 mph NW6.1 kmh NW 3.8 mph6.1 kmh 29.83 in1010.2 mb - 0.00 in0.0 mm 0.02 in0.5 mm
11:10 AM 79.8°F26.6°C 66.1°F18.9°C 63% 8.2 mph W13.2 kmh W 8.3 mph13.4 kmh 29.83 in1010.2 mb - 0.00 in0.0 mm 0.02 in0.5 mm
11:00 AM 79.5°F26.4°C 65.4°F18.6°C 62% 4.2 mph WSW6.8 kmh WSW 4.7 mph7.6 kmh 29.82 in1009.8 mb - 0.00 in0.0 mm 0.02 in0.5 mm
10:50 AM 79.7°F26.5°C 66.0°F18.9°C 63% 3.4 mph W5.5 kmh W 3.4 mph5.5 kmh 29.82 in1009.8 mb - 0.00 in0.0 mm 0.02 in0.5 mm
10:40 AM 79.9°F26.6°C 66.6°F19.2°C 64% 4.0 mph WNW6.4 kmh WNW 4.0 mph6.4 kmh 29.82 in1009.8 mb - 0.00 in0.0 mm 0.02 in0.5 mm
10:30 AM 79.7°F26.5°C 66.9°F19.4°C 65% 5.2 mph SW8.4 kmh SW 9.2 mph14.8 kmh 29.82 in1009.8 mb - 0.00 in0.0 mm 0.02 in0.5 mm
10:20 AM 79.9°F26.6°C 67.1°F19.5°C 65% 3.4 mph NW5.5 kmh NW 3.4 mph5.5 kmh 29.82 in1009.8 mb - 0.00 in0.0 mm 0.02 in0.5 mm
10:10 AM 79.5°F26.4°C 67.2°F19.6°C 66% 3.1 mph NW5.0 kmh NW 3.1 mph5.0 kmh 29.82 in1009.8 mb - 0.00 in0.0 mm 0.02 in0.5 mm
10:00 AM 79.5°F26.4°C 67.2°F19.6°C 66% 1.9 mph SE3.1 kmh SE 2.2 mph3.5 kmh 29.82 in1009.8 mb - 0.00 in0.0 mm 0.02 in0.5 mm
09:50 AM 79.3°F26.3°C 67.0°F19.4°C 66% 1.9 mph WNW3.1 kmh WNW 1.8 mph2.9 kmh 29.82 in1009.8 mb - 0.00 in0.0 mm 0.02 in0.5 mm
09:40 AM 78.5°F25.8°C 66.6°F19.2°C 67% 4.4 mph WSW7.1 kmh WSW 4.5 mph7.2 kmh 29.81 in1009.5 mb - 0.00 in0.0 mm 0.02 in0.5 mm
09:30 AM 78.1°F25.6°C 66.2°F19.0°C 67% 2.2 mph SW3.5 kmh SW 3.1 mph5.0 kmh 29.81 in1009.5 mb - 0.00 in0.0 mm 0.02 in0.5 mm
09:20 AM 78.1°F25.6°C 66.7°F19.3°C 68% 4.4 mph NNW7.1 kmh NNW 4.7 mph7.6 kmh 29.81 in1009.5 mb - 0.00 in0.0 mm 0.02 in0.5 mm
09:10 AM 77.7°F25.4°C 65.9°F18.8°C 67% 1.6 mph WNW2.6 kmh WNW 2.0 mph3.2 kmh 29.81 in1009.5 mb - 0.00 in0.0 mm 0.02 in0.5 mm
09:00 AM 78.1°F25.6°C 65.8°F18.8°C 66% 2.0 mph NE3.2 kmh NE 2.5 mph4.0 kmh 29.81 in1009.5 mb - 0.00 in0.0 mm 0.02 in0.5 mm
08:50 AM 79.2°F26.2°C 66.4°F19.1°C 65% 2.3 mph NE3.7 kmh NE 2.5 mph4.0 kmh 29.80 in1009.1 mb - 0.00 in0.0 mm 0.02 in0.5 mm
08:40 AM 79.0°F26.1°C 66.6°F19.2°C 66% 6.2 mph ENE10.0 kmh ENE 6.3 mph10.1 kmh 29.80 in1009.1 mb - 0.00 in0.0 mm 0.02 in0.5 mm
08:30 AM 78.6°F25.9°C 66.7°F19.3°C 67% 6.3 mph ENE10.1 kmh ENE 6.9 mph11.1 kmh 29.80 in1009.1 mb - 0.00 in0.0 mm 0.02 in0.5 mm
08:20 AM 78.4°F25.8°C 67.0°F19.4°C 68% 5.9 mph NE9.5 kmh NE 6.0 mph9.7 kmh 29.80 in1009.1 mb - 0.00 in0.0 mm 0.02 in0.5 mm
08:10 AM 77.9°F25.5°C 67.4°F19.7°C 70% 4.0 mph NE6.4 kmh NE 4.5 mph7.2 kmh 29.80 in1009.1 mb - 0.00 in0.0 mm 0.02 in0.5 mm
08:00 AM 77.4°F25.2°C 67.2°F19.6°C 71% 2.1 mph ENE3.4 kmh ENE 2.5 mph4.0 kmh 29.80 in1009.1 mb - 0.00 in0.0 mm 0.02 in0.5 mm
07:50 AM 77.9°F25.5°C 68.1°F20.1°C 72% Calm Calm -- 29.80 in1009.1 mb - 0.00 in0.0 mm 0.02 in0.5 mm
07:40 AM 76.8°F24.9°C 67.5°F19.7°C 73% 3.2 mph NE5.1 kmh NE 4.5 mph7.2 kmh 29.80 in1009.1 mb - 0.00 in0.0 mm 0.02 in0.5 mm
07:30 AM 75.7°F24.3°C 67.2°F19.6°C 75% Calm Calm -- 29.80 in1009.1 mb - 0.00 in0.0 mm 0.02 in0.5 mm
07:20 AM 73.9°F23.3°C 65.1°F18.4°C 74% 0.6 mph WNW1.0 kmh WNW -- 29.79 in1008.8 mb - 0.02 in0.5 mm 0.02 in0.5 mm
07:10 AM 74.3°F23.5°C 64.7°F18.2°C 72% 1.3 mph SSW2.1 kmh SSW 4.2 mph6.8 kmh 29.80 in1009.1 mb - 0.00 in0.0 mm 0.00 in0.0 mm
07:00 AM 75.6°F24.2°C 65.5°F18.6°C 71% 3.2 mph NNE5.1 kmh NNE 3.8 mph6.1 kmh 29.79 in1008.8 mb - 0.00 in0.0 mm 0.00 in0.0 mm
06:50 AM 77.5°F25.3°C 65.3°F18.5°C 66% 1.6 mph NW2.6 kmh NW 0.9 mph1.4 kmh 29.79 in1008.8 mb - 0.00 in0.0 mm 0.00 in0.0 mm
06:40 AM 78.1°F25.6°C 65.8°F18.8°C 66% 1.1 mph W1.8 kmh W 1.1 mph1.8 kmh 29.79 in1008.8 mb - 0.00 in0.0 mm 0.00 in0.0 mm
06:30 AM 77.7°F25.4°C 65.5°F18.6°C 66% 1.1 mph S1.8 kmh S 1.1 mph1.8 kmh 29.79 in1008.8 mb - 0.00 in0.0 mm 0.00 in0.0 mm
06:20 AM 77.5°F25.3°C 66.1°F18.9°C 68% 3.6 mph W5.8 kmh W 4.2 mph6.8 kmh 29.79 in1008.8 mb - 0.00 in0.0 mm 0.00 in0.0 mm
06:10 AM 76.8°F24.9°C 65.9°F18.8°C 69% 4.4 mph NNE7.1 kmh NNE 5.8 mph9.3 kmh 29.79 in1008.8 mb - 0.00 in0.0 mm 0.00 in0.0 mm
06:00 AM 76.0°F24.4°C 65.1°F18.4°C 69% 5.4 mph ENE8.7 kmh ENE 5.8 mph9.3 kmh 29.79 in1008.8 mb - 0.00 in0.0 mm 0.00 in0.0 mm
05:50 AM 75.2°F24.0°C 64.7°F18.2°C 70% 0.7 mph SE1.1 kmh SE 0.7 mph1.1 kmh 29.79 in1008.8 mb - 0.00 in0.0 mm 0.00 in0.0 mm
05:40 AM 74.3°F23.5°C 64.3°F17.9°C 71% 0.9 mph ENE1.4 kmh ENE 0.9 mph1.4 kmh 29.79 in1008.8 mb - 0.00 in0.0 mm 0.00 in0.0 mm
05:30 AM 73.2°F22.9°C 63.2°F17.3°C 71% Calm Calm -- 29.79 in1008.8 mb - 0.00 in0.0 mm 0.00 in0.0 mm
05:20 AM 72.1°F22.3°C 62.2°F16.8°C 71% Calm Calm -- 29.78 in1008.5 mb - 0.00 in0.0 mm 0.00 in0.0 mm
05:10 AM 71.4°F21.9°C 61.5°F16.4°C 71% 2.2 mph S3.5 kmh S 2.2 mph3.5 kmh 29.78 in1008.5 mb - 0.00 in0.0 mm 0.00 in0.0 mm
05:00 AM 72.0°F22.2°C 61.7°F16.5°C 70% 2.4 mph SE3.9 kmh SE 2.5 mph4.0 kmh 29.78 in1008.5 mb - 0.00 in0.0 mm 0.00 in0.0 mm
04:50 AM 72.3°F22.4°C 62.0°F16.7°C 70% 2.6 mph SE4.2 kmh SE 2.9 mph4.7 kmh 29.78 in1008.5 mb - 0.00 in0.0 mm 0.00 in0.0 mm
04:40 AM 71.8°F22.1°C 61.5°F16.4°C 70% 3.8 mph S6.1 kmh S 3.8 mph6.1 kmh 29.78 in1008.5 mb - 0.00 in0.0 mm 0.00 in0.0 mm
04:30 AM 71.8°F22.1°C 61.1°F16.2°C 69% 1.0 mph SE1.6 kmh SE 1.1 mph1.8 kmh 29.78 in1008.5 mb - 0.00 in0.0 mm 0.00 in0.0 mm
04:20 AM 72.3°F22.4°C 61.2°F16.2°C 68% Calm Calm -- 29.79 in1008.8 mb - 0.00 in0.0 mm 0.00 in0.0 mm
04:10 AM 73.4°F23.0°C 61.8°F16.6°C 67% 1.3 mph SSE2.1 kmh SSE 1.3 mph2.1 kmh 29.79 in1008.8 mb - 0.00 in0.0 mm 0.00 in0.0 mm
04:00 AM 74.6°F23.7°C 62.5°F16.9°C 66% 1.4 mph SSE2.3 kmh SSE 1.6 mph2.6 kmh 29.79 in1008.8 mb - 0.00 in0.0 mm 0.00 in0.0 mm
03:50 AM 75.2°F24.0°C 63.1°F17.3°C 66% Calm Calm -- 29.79 in1008.8 mb - 0.00 in0.0 mm 0.00 in0.0 mm
03:40 AM 75.2°F24.0°C 62.6°F17.0°C 65% Calm Calm -- 29.79 in1008.8 mb - 0.00 in0.0 mm 0.00 in0.0 mm
03:30 AM 75.2°F24.0°C 62.6°F17.0°C 65% 3.0 mph ESE4.8 kmh ESE 3.6 mph5.8 kmh 29.79 in1008.8 mb - 0.00 in0.0 mm 0.00 in0.0 mm
03:20 AM 75.4°F24.1°C 63.2°F17.3°C 66% 0.9 mph NE1.4 kmh NE -- 29.79 in1008.8 mb - 0.00 in0.0 mm 0.00 in0.0 mm
03:10 AM 75.4°F24.1°C 63.2°F17.3°C 66% 1.6 mph ESE2.6 kmh ESE 1.6 mph2.6 kmh 29.79 in1008.8 mb - 0.00 in0.0 mm 0.00 in0.0 mm
03:00 AM 75.5°F24.2°C 63.3°F17.4°C 66% 4.9 mph N7.9 kmh N 5.1 mph8.2 kmh 29.79 in1008.8 mb - 0.00 in0.0 mm 0.00 in0.0 mm
02:50 AM 75.6°F24.2°C 63.8°F17.7°C 67% 7.4 mph ENE11.9 kmh ENE 6.7 mph10.8 kmh 29.79 in1008.8 mb - 0.00 in0.0 mm 0.00 in0.0 mm
02:40 AM 75.6°F24.2°C 63.8°F17.7°C 67% 2.7 mph E4.3 kmh E 2.7 mph4.3 kmh 29.79 in1008.8 mb - 0.00 in0.0 mm 0.00 in0.0 mm
02:30 AM 75.6°F24.2°C 63.8°F17.7°C 67% 3.7 mph N6.0 kmh N 7.4 mph11.9 kmh 29.79 in1008.8 mb - 0.00 in0.0 mm 0.00 in0.0 mm
02:20 AM 75.6°F24.2°C 63.8°F17.7°C 67% 8.9 mph NE14.3 kmh NE 10.7 mph17.2 kmh 29.79 in1008.8 mb - 0.00 in0.0 mm 0.00 in0.0 mm
02:10 AM 75.4°F24.1°C 63.7°F17.6°C 67% 4.7 mph ENE7.6 kmh ENE 4.7 mph7.6 kmh 29.78 in1008.5 mb - 0.00 in0.0 mm 0.00 in0.0 mm
02:00 AM 75.4°F24.1°C 64.1°F17.8°C 68% 1.6 mph E2.6 kmh E 1.8 mph2.9 kmh 29.78 in1008.5 mb - 0.00 in0.0 mm 0.00 in0.0 mm
01:50 AM 74.8°F23.8°C 63.6°F17.6°C 68% 4.5 mph NNE7.2 kmh NNE 4.5 mph7.2 kmh 29.78 in1008.5 mb - 0.00 in0.0 mm 0.00 in0.0 mm
01:40 AM 75.0°F23.9°C 63.3°F17.4°C 67% Calm Calm -- 29.78 in1008.5 mb - 0.00 in0.0 mm 0.00 in0.0 mm
01:30 AM 74.4°F23.6°C 63.2°F17.3°C 68% 1.6 mph E2.6 kmh E 1.8 mph2.9 kmh 29.78 in1008.5 mb - 0.00 in0.0 mm 0.00 in0.0 mm
01:20 AM 74.5°F23.6°C 63.2°F17.3°C 68% Calm Calm -- 29.79 in1008.8 mb - 0.00 in0.0 mm 0.00 in0.0 mm
01:10 AM 74.8°F23.8°C 63.1°F17.3°C 67% 1.8 mph SSW2.9 kmh SSW 1.8 mph2.9 kmh 29.79 in1008.8 mb - 0.00 in0.0 mm 0.00 in0.0 mm
01:00 AM 75.0°F23.9°C 63.3°F17.4°C 67% Calm Calm 2.5 mph4.0 kmh 29.79 in1008.8 mb - 0.00 in0.0 mm 0.00 in0.0 mm
12:50 AM 75.2°F24.0°C 63.5°F17.5°C 67% 0.5 mph WSW0.8 kmh WSW 1.3 mph2.1 kmh 29.79 in1008.8 mb - 0.00 in0.0 mm 0.00 in0.0 mm
12:40 AM 75.0°F23.9°C 63.3°F17.4°C 67% 1.9 mph SSW3.1 kmh SSW 1.6 mph2.6 kmh 29.79 in1008.8 mb - 0.00 in0.0 mm 0.00 in0.0 mm
12:30 AM 75.0°F23.9°C 63.3°F17.4°C 67% Calm Calm 2.2 mph3.5 kmh 29.79 in1008.8 mb - 0.00 in0.0 mm 0.00 in0.0 mm
12:20 AM 75.4°F24.1°C 63.7°F17.6°C 67% 1.3 mph E2.1 kmh E 2.0 mph3.2 kmh 29.79 in1008.8 mb - 0.00 in0.0 mm 0.00 in0.0 mm
12:10 AM 75.4°F24.1°C 63.2°F17.3°C 66% 0.2 mph SSE0.3 kmh SSE -- 29.79 in1008.8 mb - 0.00 in0.0 mm 0.00 in0.0 mm
12:00 AM 75.5°F24.2°C 63.4°F17.4°C 66% Calm Calm 2.0 mph3.2 kmh 29.79 in1008.8 mb - 0.00 in0.0 mm 0.00 in0.0 mm